createdAt,value
2023-02-03T01:29:52.940Z,24.80
2023-02-03T01:30:53.053Z,24.79
2023-02-03T01:31:53.068Z,24.81
2023-02-03T01:32:52.979Z,24.80
2023-02-03T01:33:53.023Z,24.78
2023-02-03T01:34:53.019Z,24.77
2023-02-03T01:35:53.063Z,24.77
2023-02-03T01:36:53.002Z,24.76
2023-02-03T01:37:53.042Z,24.74
2023-02-03T01:38:53.048Z,24.75
2023-02-03T01:39:53.053Z,24.73
2023-02-03T01:40:53.068Z,24.70
2023-02-03T01:41:53.105Z,24.72
2023-02-03T01:42:53.073Z,24.71
2023-02-03T01:43:53.122Z,24.71
2023-02-03T01:44:53.096Z,24.69
2023-02-03T01:45:53.154Z,24.72
2023-02-03T01:46:53.106Z,24.69
2023-02-03T01:47:53.114Z,24.70
2023-02-03T01:48:53.113Z,24.71
2023-02-03T01:49:53.149Z,24.69
2023-02-03T01:50:53.132Z,24.70
2023-02-03T01:51:53.152Z,24.69
2023-02-03T01:52:53.143Z,24.69
2023-02-03T01:53:53.163Z,24.68
2023-02-03T01:54:53.205Z,24.69
2023-02-03T01:55:53.242Z,24.65
2023-02-03T01:56:53.307Z,24.67
2023-02-03T01:57:53.394Z,24.66
2023-02-03T01:58:53.429Z,24.66
2023-02-03T01:59:53.521Z,24.66
2023-02-03T02:00:53.536Z,24.65
2023-02-03T02:01:53.616Z,24.63
2023-02-03T02:02:53.746Z,24.65
2023-02-03T02:03:54.319Z,24.65
2023-02-03T02:04:53.798Z,24.65
2023-02-03T02:05:53.848Z,24.64
2023-02-03T02:06:53.894Z,24.63
2023-02-03T02:07:53.978Z,24.63
2023-02-03T02:08:54.063Z,24.62
2023-02-03T02:09:54.078Z,24.62
2023-02-03T02:10:54.171Z,24.61
2023-02-03T02:11:54.204Z,24.58
2023-02-03T02:12:54.267Z,24.61
2023-02-03T02:13:54.334Z,24.60
2023-02-03T02:14:54.369Z,24.59
2023-02-03T02:15:54.470Z,24.59
2023-02-03T02:16:54.442Z,24.56
2023-02-03T02:17:54.552Z,24.57
2023-02-03T02:18:54.616Z,24.57
2023-02-03T02:19:54.637Z,24.56
2023-02-03T02:20:54.743Z,24.57
2023-02-03T02:21:54.732Z,24.55
2023-02-03T02:22:54.706Z,24.54
2023-02-03T02:23:54.756Z,24.54
2023-02-03T02:24:54.754Z,24.53
2023-02-03T02:25:54.771Z,24.53
2023-02-03T02:26:54.767Z,24.52
2023-02-03T02:27:54.844Z,24.53
2023-02-03T02:28:54.767Z,24.54
2023-02-03T02:29:54.797Z,24.54
2023-02-03T02:30:54.875Z,24.53
2023-02-03T02:31:54.887Z,24.52
2023-02-03T02:32:54.806Z,24.53
2023-02-03T02:33:54.818Z,24.52
2023-02-03T02:34:54.841Z,24.52
2023-02-03T02:35:54.836Z,24.53
2023-02-03T02:36:54.860Z,24.52
2023-02-03T02:37:54.866Z,24.51
2023-02-03T02:38:54.900Z,24.53
2023-02-03T02:39:54.856Z,24.51
2023-02-03T02:40:54.885Z,24.51
2023-02-03T02:41:54.876Z,24.52
2023-02-03T02:42:54.902Z,24.51
2023-02-03T02:43:54.896Z,24.51
2023-02-03T02:44:54.932Z,24.51
2023-02-03T02:45:54.962Z,24.52
2023-02-03T02:46:54.944Z,24.52
2023-02-03T02:47:54.960Z,24.52
2023-02-03T02:48:54.967Z,24.52
2023-02-03T02:49:55.004Z,24.52
2023-02-03T02:50:54.952Z,24.52
2023-02-03T02:51:54.984Z,24.52
2023-02-03T02:52:54.972Z,24.50
2023-02-03T02:53:54.975Z,24.51
2023-02-03T02:54:55.023Z,24.50
2023-02-03T02:55:54.994Z,24.49
2023-02-03T02:56:55.023Z,24.50
2023-02-03T02:57:55.024Z,24.53
2023-02-03T02:58:55.032Z,24.50
2023-02-03T02:59:55.039Z,24.51
2023-02-03T03:00:55.024Z,24.50
2023-02-03T03:01:55.055Z,24.52
2023-02-03T03:02:55.066Z,24.50
2023-02-03T03:03:55.068Z,24.50
2023-02-03T03:04:55.087Z,24.52
2023-02-03T03:05:55.079Z,24.53
2023-02-03T03:06:55.048Z,24.51
2023-02-03T03:07:55.075Z,24.51
2023-02-03T03:08:55.047Z,24.50
2023-02-03T03:09:55.095Z,24.51
2023-02-03T03:10:55.101Z,24.51
2023-02-03T03:11:55.072Z,24.51
2023-02-03T03:12:55.086Z,24.49
2023-02-03T03:13:55.108Z,24.51
2023-02-03T03:14:55.092Z,24.53
2023-02-03T03:15:55.114Z,24.50
2023-02-03T03:16:55.092Z,24.50
2023-02-03T03:17:55.082Z,24.50
2023-02-03T03:18:55.110Z,24.49
2023-02-03T03:19:55.120Z,24.51
2023-02-03T03:20:55.127Z,24.48
2023-02-03T03:21:55.130Z,24.50
2023-02-03T03:22:55.142Z,24.50
2023-02-03T03:23:55.130Z,24.51
2023-02-03T03:24:55.190Z,24.49
2023-02-03T03:25:55.216Z,24.49
2023-02-03T03:26:55.233Z,24.51
2023-02-03T03:27:55.382Z,24.52
2023-02-03T03:28:55.362Z,24.52
2023-02-03T03:29:55.389Z,24.52
2023-02-03T03:30:55.497Z,24.51
2023-02-03T03:31:55.563Z,24.51
2023-02-03T03:32:55.525Z,24.51
2023-02-03T03:33:55.556Z,24.51
2023-02-03T03:34:55.599Z,24.52
2023-02-03T03:35:55.592Z,24.51
2023-02-03T03:36:55.618Z,24.53
2023-02-03T03:37:55.603Z,24.53
2023-02-03T03:38:55.617Z,24.53
2023-02-03T03:39:55.640Z,24.54
2023-02-03T03:40:55.620Z,24.54
2023-02-03T03:41:55.653Z,24.56
2023-02-03T03:42:55.693Z,24.56
2023-02-03T03:43:55.692Z,24.56
2023-02-03T03:44:55.701Z,24.56
2023-02-03T03:45:55.696Z,24.55
2023-02-03T03:46:55.718Z,24.57
2023-02-03T03:47:55.718Z,24.58
2023-02-03T03:48:55.756Z,24.55
2023-02-03T03:49:55.760Z,24.57
2023-02-03T03:50:55.780Z,24.56
2023-02-03T03:51:55.779Z,24.57
2023-02-03T03:52:55.831Z,24.55
2023-02-03T03:53:55.820Z,24.55
2023-02-03T03:54:55.826Z,24.55
2023-02-03T03:55:55.832Z,24.54
2023-02-03T03:56:55.843Z,24.54
2023-02-03T03:57:55.888Z,24.54
2023-02-03T03:58:55.895Z,24.54
2023-02-03T03:59:55.935Z,24.56
2023-02-03T04:00:55.946Z,24.54
2023-02-03T04:01:56.035Z,24.56
2023-02-03T04:02:56.008Z,24.55
2023-02-03T04:03:55.997Z,24.55
2023-02-03T04:04:55.996Z,24.54
2023-02-03T04:05:56.005Z,24.57
2023-02-03T04:06:56.076Z,24.57
2023-02-03T04:07:56.055Z,24.55
2023-02-03T04:08:56.069Z,24.57
2023-02-03T04:09:56.096Z,24.57
2023-02-03T04:10:56.122Z,24.57
2023-02-03T04:11:56.138Z,24.60
2023-02-03T04:12:56.092Z,24.58
2023-02-03T04:13:56.088Z,24.57
2023-02-03T04:14:56.130Z,24.56
2023-02-03T04:15:56.186Z,24.58
2023-02-03T04:16:56.159Z,24.58
2023-02-03T04:17:56.198Z,24.59
2023-02-03T04:18:56.182Z,24.59
2023-02-03T04:19:56.177Z,24.58
2023-02-03T04:20:56.217Z,24.57
2023-02-03T04:21:56.191Z,24.58
2023-02-03T04:22:56.856Z,24.58
2023-02-03T04:23:56.277Z,24.58
2023-02-03T04:24:56.273Z,24.60
2023-02-03T04:25:56.276Z,24.58
2023-02-03T04:26:56.320Z,24.57
2023-02-03T04:27:56.369Z,24.58
2023-02-03T04:28:56.338Z,24.59
2023-02-03T04:29:56.360Z,24.59
2023-02-03T04:30:56.389Z,24.60
2023-02-03T04:31:56.426Z,24.60
2023-02-03T04:32:56.345Z,24.59
2023-02-03T04:33:56.337Z,24.64
2023-02-03T04:34:56.367Z,24.61
2023-02-03T04:35:56.358Z,24.63
2023-02-03T04:36:56.371Z,24.64
2023-02-03T04:37:56.361Z,24.65
2023-02-03T06:46:04.037Z,23.98
2023-02-03T11:04:03.032Z,27.08
2023-02-03T11:05:03.092Z,27.09
2023-02-03T11:06:03.069Z,26.99
2023-02-03T11:07:03.144Z,27.06
2023-02-03T11:08:03.176Z,27.16
2023-02-03T11:09:03.232Z,27.32
2023-02-03T11:10:03.297Z,27.36
2023-02-03T11:11:03.285Z,27.52
2023-02-03T11:12:03.391Z,27.70
2023-02-03T11:13:03.588Z,27.78
2023-02-03T11:14:03.416Z,27.84
2023-02-03T11:15:03.448Z,27.86
2023-02-03T11:16:03.546Z,27.83
2023-02-03T11:17:03.552Z,27.86
2023-02-03T11:18:03.527Z,27.94
2023-02-03T11:19:03.572Z,27.99
2023-02-03T11:20:03.602Z,27.93
2023-02-03T11:21:03.604Z,27.91
2023-02-03T11:22:03.612Z,27.92
2023-02-03T11:23:03.768Z,27.96
2023-02-03T11:24:03.665Z,28.09
2023-02-03T11:25:03.698Z,28.01
2023-02-03T11:26:03.710Z,28.01
2023-02-03T11:27:03.738Z,28.04
2023-02-03T11:28:03.811Z,28.18
2023-02-03T11:29:03.812Z,28.29
2023-02-03T11:30:03.818Z,28.26
2023-02-03T11:31:03.876Z,28.54
2023-02-03T11:32:03.913Z,29.03
2023-02-03T11:33:04.063Z,30.05
2023-02-03T11:34:03.841Z,29.89
2023-02-03T11:35:03.872Z,29.60
2023-02-03T11:36:03.968Z,29.51
2023-02-03T11:37:03.910Z,29.42
2023-02-03T11:38:04.095Z,29.47
2023-02-03T11:39:04.019Z,29.45
2023-02-03T11:40:04.018Z,29.42
2023-02-03T11:41:03.994Z,29.37
2023-02-03T11:42:03.973Z,29.37
2023-02-03T11:43:04.108Z,29.34
2023-02-03T11:44:04.061Z,29.30
2023-02-03T11:45:04.119Z,29.27
2023-02-03T11:46:04.151Z,29.25
2023-02-03T11:47:04.130Z,29.21
2023-02-03T11:48:04.204Z,29.21
2023-02-03T11:49:04.181Z,29.16
2023-02-03T11:50:04.288Z,29.15
2023-02-03T11:53:04.831Z,29.03
2023-02-03T11:54:04.309Z,29.04
2023-02-03T11:55:04.346Z,29.00
2023-02-03T11:58:04.260Z,28.93
2023-02-03T12:01:04.369Z,28.88
2023-02-03T12:02:04.622Z,28.86
2023-02-03T12:04:04.464Z,28.83
2023-02-03T12:05:04.327Z,28.83
2023-02-03T12:06:04.313Z,28.79
2023-02-03T12:07:04.335Z,28.73
2023-02-03T12:08:04.343Z,28.74
2023-02-03T12:09:04.420Z,28.74
2023-02-03T16:38:07.087Z,34.03
2023-02-03T16:39:07.004Z,33.91
2023-02-03T16:40:07.031Z,33.98
2023-02-03T16:41:07.080Z,33.95
2023-02-03T16:42:07.121Z,34.04
2023-02-03T16:43:07.136Z,34.05
2023-02-03T16:44:07.168Z,33.95
2023-02-03T16:45:07.210Z,33.73
2023-02-03T16:46:07.260Z,33.75
2023-02-03T16:47:07.264Z,33.78
2023-02-03T16:48:07.298Z,33.86
2023-02-03T16:49:07.308Z,33.86
2023-02-03T16:50:07.321Z,33.80
2023-02-03T16:51:07.317Z,33.77
2023-02-03T16:52:07.319Z,33.74
2023-02-03T16:53:07.365Z,33.69
2023-02-03T16:54:07.397Z,33.64
2023-02-03T16:55:07.336Z,33.62
2023-02-03T16:56:07.317Z,33.51
2023-02-03T16:57:07.326Z,33.51
2023-02-03T16:58:07.356Z,33.39
2023-02-03T16:59:07.354Z,33.42
2023-02-03T17:00:07.354Z,33.40
2023-02-03T17:01:07.391Z,33.24
2023-02-03T17:02:07.424Z,33.26
2023-02-03T17:03:07.371Z,33.05
2023-02-03T17:04:07.399Z,33.18
2023-02-03T17:05:07.373Z,33.13
2023-02-03T17:06:07.389Z,33.13
2023-02-03T17:07:07.409Z,33.01
2023-02-03T17:08:07.419Z,33.08
2023-02-03T17:09:07.477Z,33.04
2023-02-03T17:10:07.498Z,32.90
2023-02-03T17:11:07.559Z,32.96
2023-02-03T17:12:07.557Z,32.74
2023-02-03T17:13:07.581Z,32.87
2023-02-03T17:14:07.567Z,33.02
2023-02-03T17:15:07.625Z,33.04
2023-02-03T17:16:07.602Z,33.07
2023-02-03T17:17:07.578Z,32.87
2023-02-03T17:18:07.609Z,32.79
2023-02-03T17:19:07.605Z,32.81
2023-02-03T17:20:07.657Z,32.83
2023-02-03T17:21:07.612Z,32.91
2023-02-03T17:22:07.619Z,32.88
2023-02-03T17:23:07.671Z,32.88
2023-02-03T17:24:07.696Z,32.91
2023-02-03T17:25:07.744Z,32.78
2023-02-03T17:27:07.800Z,32.65
2023-02-03T17:28:07.902Z,32.70
2023-02-03T17:29:07.925Z,32.74
2023-02-03T17:30:07.948Z,32.69
2023-02-03T17:31:08.033Z,32.64
2023-02-03T17:32:08.086Z,32.70
2023-02-03T17:33:08.040Z,32.71
2023-02-03T17:34:08.065Z,32.65
2023-02-03T17:35:08.131Z,32.52
2023-02-03T17:36:08.127Z,32.52
2023-02-03T17:37:08.204Z,32.42
2023-02-03T17:38:08.220Z,32.44
2023-02-03T17:53:34.902Z,32.40
2023-02-03T17:54:34.904Z,32.37
2023-02-03T17:55:34.865Z,32.38
2023-02-03T17:56:34.876Z,32.34
2023-02-03T17:57:34.830Z,32.21
2023-02-03T17:58:34.860Z,32.13
2023-02-03T17:59:34.867Z,32.17
2023-02-03T18:00:34.838Z,32.18
2023-02-03T18:01:34.822Z,32.18
2023-02-03T18:02:34.847Z,32.16
2023-02-03T18:03:34.804Z,32.12
2023-02-03T18:04:34.786Z,31.96
2023-02-03T18:05:34.790Z,31.89
2023-02-03T18:06:34.824Z,31.97
2023-02-03T18:07:34.781Z,32.03
2023-02-03T18:08:34.788Z,31.89
2023-02-03T18:09:34.773Z,31.76
2023-02-03T18:10:34.757Z,31.76
2023-02-03T18:11:34.762Z,31.82
2023-02-03T18:12:34.757Z,31.23
2023-02-03T18:13:34.723Z,31.38
2023-02-03T18:14:34.704Z,31.53
2023-02-03T18:15:34.697Z,31.68
2023-02-03T18:16:34.766Z,31.74
2023-02-03T18:17:34.747Z,31.54
2023-02-03T18:18:34.698Z,31.37
2023-02-03T18:19:34.699Z,31.43
2023-02-03T18:20:34.652Z,31.42
2023-02-03T18:21:35.718Z,31.16
2023-02-03T18:22:34.700Z,31.21
2023-02-03T18:23:34.653Z,31.26
2023-02-03T18:24:34.652Z,31.24
2023-02-03T18:25:34.639Z,31.29
2023-02-03T18:26:34.660Z,31.36
2023-02-03T18:27:34.632Z,31.33
2023-02-03T18:28:34.643Z,31.05
2023-02-03T18:29:34.634Z,31.17
2023-02-03T18:30:34.666Z,31.30
2023-02-03T18:31:34.666Z,31.18
2023-02-03T18:32:34.600Z,30.99
2023-02-03T18:33:34.638Z,30.98
2023-02-03T18:34:34.573Z,30.49
2023-02-03T18:35:34.558Z,30.65
2023-02-03T18:36:34.555Z,30.49
2023-02-03T18:37:34.560Z,30.67
2023-02-03T18:38:34.580Z,30.73
2023-02-03T18:39:34.552Z,30.80
2023-02-03T18:40:34.529Z,30.90
2023-02-03T18:41:34.562Z,30.89
2023-02-03T18:42:34.545Z,30.91
2023-02-03T18:43:34.568Z,30.73
2023-02-03T18:44:34.553Z,30.69
2023-02-03T18:45:34.532Z,30.82
2023-02-03T18:46:34.555Z,30.80
2023-02-03T18:47:34.534Z,30.78
2023-02-03T18:48:34.491Z,30.57
2023-02-03T18:49:34.494Z,30.57
2023-02-03T18:50:34.501Z,30.46
2023-02-03T18:51:34.487Z,30.15
2023-02-03T18:52:34.502Z,30.26
2023-02-03T18:53:35.064Z,30.38
2023-02-03T18:54:34.468Z,30.49
2023-02-03T18:55:34.480Z,30.50
2023-02-03T18:56:34.433Z,30.37
2023-02-03T18:57:34.458Z,30.53
2023-02-03T18:58:34.431Z,30.43
2023-02-03T18:59:34.467Z,30.46
2023-02-03T19:00:34.435Z,30.51
2023-02-03T19:01:34.441Z,30.43
2023-02-03T19:02:34.460Z,29.75
2023-02-03T19:03:34.415Z,30.12
2023-02-03T19:04:34.385Z,30.10
2023-02-03T19:05:34.380Z,30.41
2023-02-03T19:06:34.402Z,30.41
2023-02-03T19:07:34.368Z,30.43
2023-02-03T19:08:34.341Z,30.29
2023-02-03T19:09:34.345Z,30.29
2023-02-03T19:10:34.387Z,30.34
2023-02-03T19:11:34.355Z,30.34
2023-02-03T19:12:34.356Z,30.39
2023-02-03T19:13:34.307Z,30.21
2023-02-03T19:14:34.336Z,30.43
2023-02-03T19:15:34.324Z,30.52
2023-02-03T19:16:34.346Z,30.51
2023-02-03T19:17:34.321Z,30.46
2023-02-03T19:18:34.301Z,30.37
2023-02-03T19:19:34.310Z,30.35
2023-02-03T19:20:34.277Z,30.31
2023-02-03T19:21:34.273Z,30.41
2023-02-03T19:22:34.282Z,30.30
2023-02-03T19:23:34.242Z,30.11
2023-02-03T19:24:34.247Z,30.02
2023-02-03T19:25:34.239Z,30.14
2023-02-03T19:26:34.249Z,30.31
2023-02-03T19:27:34.250Z,30.36
2023-02-03T19:28:35.443Z,30.34
2023-02-03T19:29:34.196Z,30.27
2023-02-03T19:30:34.230Z,30.20
2023-02-03T19:31:34.275Z,30.23
2023-02-03T19:32:34.206Z,29.99
2023-02-03T19:33:34.189Z,29.96
2023-02-03T19:34:34.170Z,29.98
2023-02-03T19:35:34.181Z,29.97
2023-02-03T20:51:36.206Z,29.33
2023-02-03T23:10:42.471Z,28.50
2023-02-03T23:11:42.566Z,28.50
2023-02-03T23:12:42.614Z,28.48
